Time;durP1;ratioP1;P1;durP2;ratioP2;P2;SDS_P1;SDS_P2;PMS_P1;PMS_P2;Temp;Humidity;BMP_temperature;BMP_pressure;BME280_temperature;BME280_humidity;BME280_pressure;Samples;Min_cycle;Max_cycle;Signal;HPM_P1;HPM_P2
2021/01/28 00:02:07;;;;;;;42.20;16.30;;;;;;;;;;4407652;32;20135;-74
2021/01/28 00:04:32;;;;;;;44.03;16.90;;;;;;;;;;4407051;32;20158;-74
2021/01/28 00:06:58;;;;;;;39.53;15.37;;;;;;;;;;4406983;32;20202;-74
2021/01/28 00:09:32;;;;;;;39.37;17.30;;;;;;;;;;4406585;32;20192;-75
2021/01/28 00:11:58;;;;;;;41.20;16.03;;;;;;;;;;4407835;32;20156;-74
2021/01/28 00:14:23;;;;;;;40.77;16.83;;;;;;;;;;4393124;32;20181;-74
2021/01/28 00:16:48;;;;;;;41.63;16.63;;;;;;;;;;4407310;32;20161;-74
2021/01/28 00:19:16;;;;;;;40.13;17.10;;;;;;;;;;4387631;32;20488;-74
2021/01/28 00:21:42;;;;;;;36.13;14.93;;;;;;;;;;4391527;32;20151;-75
2021/01/28 00:24:28;;;;;;;47.87;16.93;;;;;;;;;;4391774;32;20177;-74
2021/01/28 00:27:02;;;;;;;42.00;16.77;;;;;;;;;;4390819;32;20249;-74
2021/01/28 00:29:27;;;;;;;38.50;15.60;;;;;;;;;;4392424;32;20165;-74
2021/01/28 00:31:59;;;;;;;39.37;16.33;;;;;;;;;;4391723;32;20170;-74
2021/01/28 00:34:25;;;;;;;44.50;16.20;;;;;;;;;;4391854;32;20195;-74
2021/01/28 00:36:50;;;;;;;55.93;17.63;;;;;;;;;;4391768;32;20157;-74
2021/01/28 00:39:16;;;;;;;40.73;16.20;;;;;;;;;;4391559;32;20510;-74
2021/01/28 00:41:41;;;;;;;42.17;16.93;;;;;;;;;;4377847;32;20188;-75
2021/01/28 00:44:07;;;;;;;51.87;17.73;;;;;;;;;;4378074;32;20193;-74
2021/01/28 00:46:32;;;;;;;55.70;16.40;;;;;;;;;;4391723;32;20169;-75
2021/01/28 00:48:57;;;;;;;110.23;17.20;;;;;;;;;;4391667;32;20181;-74
2021/01/28 00:51:33;;;;;;;;;;;;;;;;;;;;;
2021/01/28 00:54:02;;;;;;;41.07;14.43;;;;;;;;;;4329840;33;20167;-74
2021/01/28 00:56:46;;;;;;;81.37;16.20;;;;;;;;;;4380675;32;20204;-74
2021/01/28 00:59:11;;;;;;;51.53;15.37;;;;;;;;;;4392768;32;20296;-74
2021/01/28 01:01:37;;;;;;;65.07;15.87;;;;;;;;;;4396698;32;20178;-74
2021/01/28 01:04:02;;;;;;;82.97;17.77;;;;;;;;;;4406577;32;20165;-74
2021/01/28 01:06:39;;;;;;;53.83;15.23;;;;;;;;;;4406528;32;20229;-75
2021/01/28 01:09:25;;;;;;;71.53;16.47;;;;;;;;;;4406810;32;20209;-76
2021/01/28 01:11:59;;;;;;;112.53;19.17;;;;;;;;;;4392447;32;20673;-75
2021/01/28 01:14:24;;;;;;;37.90;15.20;;;;;;;;;;4407002;32;20126;-75
2021/01/28 01:16:55;;;;;;;39.23;14.50;;;;;;;;;;4406083;32;20130;-75
2021/01/28 01:22:06;;;;;;;38.90;14.37;;;;;;;;;;4382166;32;20188;-75
2021/01/28 01:24:34;;;;;;;77.33;17.27;;;;;;;;;;4405860;32;20154;-75
2021/01/28 01:26:59;;;;;;;61.40;16.57;;;;;;;;;;4406137;32;20149;-75
2021/01/28 01:29:31;;;;;;;71.03;17.90;;;;;;;;;;4405221;32;20191;-75
2021/01/28 01:31:59;;;;;;;68.23;16.97;;;;;;;;;;4406477;32;20166;-75
2021/01/28 01:34:38;;;;;;;;;;;;;;;;;;;;;
2021/01/28 01:37:03;;;;;;;94.50;17.70;;;;;;;;;;4406233;32;20153;-75
2021/01/28 01:39:32;;;;;;;96.70;19.73;;;;;;;;;;4405779;32;20606;-75
2021/01/28 01:41:57;;;;;;;84.47;17.57;;;;;;;;;;4406078;32;20178;-75
2021/01/28 01:44:25;;;;;;;57.33;16.53;;;;;;;;;;4405863;32;20137;-75
2021/01/28 01:46:54;;;;;;;40.17;14.90;;;;;;;;;;4405878;32;20165;-75
2021/01/28 01:49:24;;;;;;;47.63;15.47;;;;;;;;;;4405586;32;20215;-75
2021/01/28 01:51:49;;;;;;;133.07;19.13;;;;;;;;;;4392079;32;20192;-75
2021/01/28 01:54:31;;;;;;;89.63;18.23;;;;;;;;;;4392355;32;20173;-75
2021/01/28 01:57:01;;;;;;;81.97;19.57;;;;;;;;;;4405861;32;20170;-75
2021/01/28 01:59:56;;;;;;;59.13;17.13;;;;;;;;;;4405753;32;20235;-75
2021/01/28 02:02:22;;;;;;;40.00;15.67;;;;;;;;;;4405725;32;20221;-75
2021/01/28 02:04:52;;;;;;;56.57;17.37;;;;;;;;;;4405795;32;20226;-75
2021/01/28 02:07:19;;;;;;;61.20;16.77;;;;;;;;;;4391703;32;20162;-75
2021/01/28 02:09:44;;;;;;;52.97;16.97;;;;;;;;;;4405357;32;20208;-75
2021/01/28 02:15:22;;;;;;;75.93;17.10;;;;;;;;;;4405468;32;20518;-75
2021/01/28 02:17:49;;;;;;;66.77;16.10;;;;;;;;;;4391857;32;20200;-75
2021/01/28 02:20:36;;;;;;;69.53;16.33;;;;;;;;;;4405314;32;20150;-75
2021/01/28 02:26:08;;;;;;;35.20;14.83;;;;;;;;;;4405709;32;20144;-75
2021/01/28 02:28:38;;;;;;;47.03;15.80;;;;;;;;;;4405716;32;20150;-75
2021/01/28 02:31:04;;;;;;;112.20;19.47;;;;;;;;;;4405721;32;20232;-75
2021/01/28 02:33:38;;;;;;;42.63;15.07;;;;;;;;;;4405553;32;20192;-75
2021/01/28 02:36:03;;;;;;;57.77;16.37;;;;;;;;;;4405137;32;20225;-75
2021/01/28 02:38:29;;;;;;;31.77;13.50;;;;;;;;;;4405325;32;20146;-75
2021/01/28 02:40:54;;;;;;;39.03;14.73;;;;;;;;;;4391562;32;20216;-75
2021/01/28 02:43:19;;;;;;;55.70;16.03;;;;;;;;;;4405267;32;20142;-75
2021/01/28 02:45:45;;;;;;;33.30;14.33;;;;;;;;;;4405940;32;20138;-75
2021/01/28 02:48:11;;;;;;;41.43;15.10;;;;;;;;;;4391766;32;20161;-75
2021/01/28 02:50:37;;;;;;;33.90;14.67;;;;;;;;;;4405831;32;20174;-75
2021/01/28 02:53:03;;;;;;;27.67;13.40;;;;;;;;;;4405174;32;20195;-75
2021/01/28 02:55:29;;;;;;;32.70;15.03;;;;;;;;;;4405195;32;20161;-75
2021/01/28 02:57:55;;;;;;;31.70;14.10;;;;;;;;;;4408328;32;20164;-75
2021/01/28 03:00:25;;;;;;;54.80;15.37;;;;;;;;;;4392838;32;20139;-75
2021/01/28 03:02:50;;;;;;;53.07;16.30;;;;;;;;;;4379125;32;20174;-75
2021/01/28 03:05:16;;;;;;;52.50;15.00;;;;;;;;;;4393105;32;20195;-75
2021/01/28 03:07:41;;;;;;;35.87;14.53;;;;;;;;;;4379855;32;20173;-75
2021/01/28 03:10:07;;;;;;;31.73;12.83;;;;;;;;;;4393137;32;20556;-75
2021/01/28 03:12:32;;;;;;;30.53;13.20;;;;;;;;;;4379320;32;20163;-75
2021/01/28 03:14:58;;;;;;;41.83;15.37;;;;;;;;;;4392971;32;20445;-75
2021/01/28 03:17:23;;;;;;;33.43;14.17;;;;;;;;;;4379180;32;20200;-75
2021/01/28 03:19:48;;;;;;;30.37;13.13;;;;;;;;;;4392883;32;20134;-75
2021/01/28 03:22:14;;;;;;;121.97;18.33;;;;;;;;;;4405005;32;20168;-75
2021/01/28 03:24:39;;;;;;;29.27;13.07;;;;;;;;;;4407498;32;20153;-75
2021/01/28 03:27:05;;;;;;;35.07;14.23;;;;;;;;;;4407695;32;20149;-75
2021/01/28 03:29:30;;;;;;;30.83;13.73;;;;;;;;;;4408336;32;20183;-75
2021/01/28 03:31:55;;;;;;;34.43;14.40;;;;;;;;;;4407712;32;20161;-75
2021/01/28 03:34:20;;;;;;;31.63;13.80;;;;;;;;;;4407443;32;20184;-75
2021/01/28 03:36:46;;;;;;;31.40;14.47;;;;;;;;;;4408309;32;20173;-75
2021/01/28 03:39:12;;;;;;;32.23;14.20;;;;;;;;;;4393727;32;20271;-75
2021/01/28 03:41:37;;;;;;;33.50;14.83;;;;;;;;;;4407720;32;20134;-76
2021/01/28 03:44:03;;;;;;;32.17;13.77;;;;;;;;;;4407759;32;20133;-75
2021/01/28 03:46:28;;;;;;;33.33;14.20;;;;;;;;;;4407326;32;20176;-75
2021/01/28 03:48:54;;;;;;;32.07;13.93;;;;;;;;;;4407472;32;20492;-75
2021/01/28 03:51:19;;;;;;;33.57;14.07;;;;;;;;;;4407142;32;20162;-76
2021/01/28 03:53:44;;;;;;;80.60;16.87;;;;;;;;;;4393461;32;20188;-75
2021/01/28 03:56:10;;;;;;;80.47;15.83;;;;;;;;;;4407283;32;20138;-75
2021/01/28 03:58:35;;;;;;;33.80;14.40;;;;;;;;;;4407415;32;20142;-75
2021/01/28 04:01:03;;;;;;;31.67;13.77;;;;;;;;;;4407162;32;20188;-75
2021/01/28 04:03:28;;;;;;;34.57;15.57;;;;;;;;;;4393809;32;20189;-75
2021/01/28 04:05:53;;;;;;;39.20;14.53;;;;;;;;;;4407038;32;20142;-75
2021/01/28 04:08:19;;;;;;;75.10;16.43;;;;;;;;;;4407303;32;20193;-75
2021/01/28 04:10:44;;;;;;;51.30;15.47;;;;;;;;;;4407564;32;20162;-75
2021/01/28 04:13:09;;;;;;;100.77;17.43;;;;;;;;;;4407389;32;20180;-75
2021/01/28 04:15:35;;;;;;;95.83;16.50;;;;;;;;;;4393514;32;20158;-75
2021/01/28 04:18:09;;;;;;;93.73;17.90;;;;;;;;;;4407451;32;20173;-75
2021/01/28 04:20:39;;;;;;;40.07;14.53;;;;;;;;;;4408103;32;20133;-75
2021/01/28 04:23:05;;;;;;;43.80;14.83;;;;;;;;;;4406902;32;20158;-75
2021/01/28 04:25:30;;;;;;;44.57;14.50;;;;;;;;;;4406791;32;20192;-75
2021/01/28 04:27:55;;;;;;;27.77;12.83;;;;;;;;;;4393123;32;20189;-75
2021/01/28 04:30:30;;;;;;;78.57;17.27;;;;;;;;;;4406794;32;20138;-75
2021/01/28 04:32:56;;;;;;;124.07;17.27;;;;;;;;;;4380481;32;20191;-75
2021/01/28 04:35:21;;;;;;;73.37;16.03;;;;;;;;;;4391450;32;20134;-75
2021/01/28 04:38:07;;;;;;;47.23;15.07;;;;;;;;;;4391705;32;20268;-75
2021/01/28 04:40:37;;;;;;;84.90;17.10;;;;;;;;;;4391321;32;20162;-75
2021/01/28 04:43:23;;;;;;;107.87;18.63;;;;;;;;;;4378346;32;20165;-75
2021/01/28 04:45:51;;;;;;;85.57;18.63;;;;;;;;;;4391588;32;20134;-75
2021/01/28 04:48:17;;;;;;;65.57;17.33;;;;;;;;;;4377607;32;20253;-75
2021/01/28 04:50:43;;;;;;;44.33;17.10;;;;;;;;;;4378644;32;20167;-75
2021/01/28 04:53:14;;;;;;;55.33;18.93;;;;;;;;;;4383723;32;20572;-74
2021/01/28 04:55:45;;;;;;;58.87;18.93;;;;;;;;;;4406479;32;20142;-74
2021/01/28 04:58:13;;;;;;;43.00;17.67;;;;;;;;;;4406627;32;20164;-74
2021/01/28 05:00:39;;;;;;;46.07;18.07;;;;;;;;;;4406310;32;20142;-74
2021/01/28 05:03:26;;;;;;;61.47;19.07;;;;;;;;;;4392889;32;20147;-74
2021/01/28 05:06:11;;;;;;;43.73;16.77;;;;;;;;;;4391103;32;20582;-74
2021/01/28 05:08:37;;;;;;;40.97;16.53;;;;;;;;;;4391297;32;20169;-74
2021/01/28 05:11:04;;;;;;;50.93;17.10;;;;;;;;;;4397691;32;20196;-76
2021/01/28 05:13:36;;;;;;;76.37;19.90;;;;;;;;;;4377187;32;20526;-76
2021/01/28 05:19:09;;;;;;;124.53;24.13;;;;;;;;;;4390843;32;20173;-74
2021/01/28 05:21:41;;;;;;;49.40;19.17;;;;;;;;;;4391097;32;20160;-74
2021/01/28 05:27:19;;;;;;;52.40;20.57;;;;;;;;;;4391442;32;20280;-74
2021/01/28 05:29:45;;;;;;;52.87;20.57;;;;;;;;;;4391104;32;20123;-74
2021/01/28 05:32:13;;;;;;;84.57;23.23;;;;;;;;;;4376773;32;20251;-75
2021/01/28 05:34:39;;;;;;;65.63;22.57;;;;;;;;;;4377523;32;20490;-74
2021/01/28 05:37:23;;;;;;;71.03;22.40;;;;;;;;;;4390749;32;20192;-74
2021/01/28 05:39:51;;;;;;;60.83;21.20;;;;;;;;;;4391085;32;20139;-74
2021/01/28 05:42:27;;;;;;;65.87;21.97;;;;;;;;;;4390679;32;20166;-75
2021/01/28 05:45:13;;;;;;;54.27;20.40;;;;;;;;;;4390923;32;20210;-74
2021/01/28 05:47:40;;;;;;;72.07;21.20;;;;;;;;;;4390807;32;20192;-74
2021/01/28 05:50:21;;;;;;;126.00;25.57;;;;;;;;;;4390684;32;20131;-76
2021/01/28 05:53:06;;;;;;;74.67;24.03;;;;;;;;;;4377302;32;20158;-75
2021/01/28 05:55:32;;;;;;;53.90;20.23;;;;;;;;;;4377270;32;20204;-74
2021/01/28 05:58:00;;;;;;;85.70;22.73;;;;;;;;;;4390602;32;20544;-74
2021/01/28 06:00:37;;;;;;;88.20;24.27;;;;;;;;;;4390709;32;20143;-76
2021/01/28 06:03:32;;;;;;;112.57;26.23;;;;;;;;;;4390628;32;20185;-75
2021/01/28 06:06:16;;;;;;;56.30;18.80;;;;;;;;;;4390859;32;20212;-76
2021/01/28 06:08:44;;;;;;;49.97;18.80;;;;;;;;;;4390926;32;20142;-75
2021/01/28 06:11:45;;;;;;;60.03;20.77;;;;;;;;;;4375858;32;20158;-76
2021/01/28 06:14:25;;;;;;;45.83;17.63;;;;;;;;;;4376651;32;20196;-76
2021/01/28 06:16:51;;;;;;;48.53;18.33;;;;;;;;;;4390542;32;20134;-77
2021/01/28 06:19:36;;;;;;;68.40;21.70;;;;;;;;;;4376473;32;20656;-75
2021/01/28 06:22:03;;;;;;;68.63;21.77;;;;;;;;;;4376238;32;20185;-75
2021/01/28 06:24:41;;;;;;;79.37;27.83;;;;;;;;;;4390130;32;20154;-75
2021/01/28 06:30:11;;;;;;;62.77;20.30;;;;;;;;;;4376452;32;20184;-75
2021/01/28 06:32:55;;;;;;;51.60;18.53;;;;;;;;;;4375909;32;20162;-77
2021/01/28 06:35:39;;;;;;;45.13;18.40;;;;;;;;;;4376308;32;20219;-76
2021/01/28 06:38:31;;;;;;;56.90;18.70;;;;;;;;;;4376530;32;20232;-76
2021/01/28 06:41:05;;;;;;;48.67;18.63;;;;;;;;;;4371834;32;20161;-75
2021/01/28 06:43:41;;;;;;;41.97;17.70;;;;;;;;;;4375978;32;20204;-76
2021/01/28 06:46:15;;;;;;;36.00;16.20;;;;;;;;;;4376176;32;20166;-76
2021/01/28 06:48:44;;;;;;;66.23;20.37;;;;;;;;;;4376103;32;20173;-77
2021/01/28 06:51:17;;;;;;;58.67;18.93;;;;;;;;;;4375946;32;20285;-77
2021/01/28 06:54:03;;;;;;;42.60;16.67;;;;;;;;;;4390115;32;20197;-75
2021/01/28 06:57:11;;;;;;;;;;;;;;;;;;;;;
2021/01/28 06:59:36;;;;;;;50.43;17.63;;;;;;;;;;4385422;32;20189;-73
2021/01/28 07:02:08;;;;;;;43.20;15.80;;;;;;;;;;4389611;32;20520;-76
2021/01/28 07:04:41;;;;;;;36.23;14.20;;;;;;;;;;4390346;32;20158;-76
2021/01/28 07:07:19;;;;;;;34.83;13.97;;;;;;;;;;4389873;32;20181;-75
2021/01/28 07:09:50;;;;;;;29.77;13.00;;;;;;;;;;4389880;32;20192;-75
2021/01/28 07:12:21;;;;;;;32.37;13.57;;;;;;;;;;4375744;32;20219;-77
2021/01/28 07:14:50;;;;;;;32.37;12.73;;;;;;;;;;4389802;32;20264;-76
2021/01/28 07:17:19;;;;;;;26.80;12.00;;;;;;;;;;4394638;32;20166;-76
2021/01/28 07:19:53;;;;;;;28.20;12.93;;;;;;;;;;4405741;32;20161;-76
2021/01/28 07:22:27;;;;;;;31.87;12.37;;;;;;;;;;4389420;32;20192;-75
2021/01/28 07:24:52;;;;;;;27.87;12.60;;;;;;;;;;4403631;32;20162;-76
2021/01/28 07:27:27;;;;;;;29.87;12.27;;;;;;;;;;4404470;32;20196;-76
2021/01/28 07:29:56;;;;;;;29.77;11.90;;;;;;;;;;4392983;32;20212;-75
2021/01/28 07:32:21;;;;;;;33.00;12.30;;;;;;;;;;4401396;32;20153;-76
2021/01/28 07:35:08;;;;;;;25.67;11.40;;;;;;;;;;4404356;32;20177;-75
2021/01/28 07:37:34;;;;;;;27.73;11.57;;;;;;;;;;4389714;32;20219;-76
2021/01/28 07:40:07;;;;;;;34.73;12.00;;;;;;;;;;4389942;32;20540;-77
2021/01/28 07:42:32;;;;;;;27.63;11.30;;;;;;;;;;4388739;32;20188;-76
2021/01/28 07:45:17;;;;;;;31.80;11.13;;;;;;;;;;4401587;32;20568;-77
2021/01/28 07:47:43;;;;;;;31.97;11.80;;;;;;;;;;4391840;32;20229;-75
2021/01/28 07:50:26;;;;;;;31.93;10.70;;;;;;;;;;4405892;32;20150;-77
2021/01/28 07:52:52;;;;;;;25.80;9.57;;;;;;;;;;4403626;32;20187;-77
2021/01/28 07:55:36;;;;;;;29.03;10.57;;;;;;;;;;4393095;32;20626;-76
2021/01/28 07:58:03;;;;;;;25.63;10.27;;;;;;;;;;4407286;32;20173;-78
2021/01/28 08:00:30;;;;;;;23.47;10.20;;;;;;;;;;4406755;32;20209;-75
2021/01/28 08:03:04;;;;;;;21.10;9.50;;;;;;;;;;4407235;32;20201;-77
2021/01/28 08:05:29;;;;;;;23.30;9.63;;;;;;;;;;4393117;32;20189;-77
2021/01/28 08:08:05;;;;;;;27.13;10.87;;;;;;;;;;4406707;32;20209;-76
2021/01/28 08:10:34;;;;;;;22.77;9.00;;;;;;;;;;4407068;32;20147;-76
2021/01/28 08:13:14;;;;;;;24.50;9.17;;;;;;;;;;4394526;32;20184;-77
2021/01/28 08:15:44;;;;;;;20.57;8.57;;;;;;;;;;4392793;32;20165;-74
2021/01/28 08:18:30;;;;;;;19.80;8.33;;;;;;;;;;4392638;32;20167;-77
2021/01/28 08:21:05;;;;;;;23.00;8.50;;;;;;;;;;4406722;32;20249;-76
2021/01/28 08:23:30;;;;;;;21.50;8.40;;;;;;;;;;4392607;32;20223;-75
2021/01/28 08:26:00;;;;;;;27.17;8.87;;;;;;;;;;4392716;32;20197;-77
2021/01/28 08:28:33;;;;;;;22.97;8.47;;;;;;;;;;4415651;32;20207;-75
2021/01/28 08:31:06;;;;;;;20.30;8.73;;;;;;;;;;4392859;32;20599;-73
2021/01/28 08:33:32;;;;;;;17.50;7.00;;;;;;;;;;4392937;32;20180;-75
2021/01/28 08:36:02;;;;;;;18.13;7.80;;;;;;;;;;4392483;32;20531;-77
2021/01/28 08:38:32;;;;;;;21.47;8.17;;;;;;;;;;4406862;32;20165;-77
2021/01/28 08:41:05;;;;;;;16.90;7.10;;;;;;;;;;4392424;32;20213;-77
2021/01/28 08:43:33;;;;;;;16.87;7.73;;;;;;;;;;4392278;32;20170;-77
2021/01/28 08:46:02;;;;;;;19.30;7.73;;;;;;;;;;4406441;32;20134;-76
2021/01/28 08:48:28;;;;;;;16.57;7.57;;;;;;;;;;4392372;32;20228;-76
2021/01/28 08:51:21;;;;;;;16.20;7.07;;;;;;;;;;4392651;32;20638;-77
2021/01/28 08:54:03;;;;;;;19.60;8.43;;;;;;;;;;4406009;32;20180;-76
2021/01/28 08:56:37;;;;;;;14.50;7.17;;;;;;;;;;4406382;32;20601;-75
2021/01/28 08:59:09;;;;;;;15.73;7.23;;;;;;;;;;4405678;32;20177;-77
2021/01/28 09:01:37;;;;;;;14.53;7.30;;;;;;;;;;4392133;32;20284;-77
2021/01/28 09:04:08;;;;;;;20.07;8.47;;;;;;;;;;4405623;32;20192;-76
2021/01/28 09:06:41;;;;;;;18.73;7.27;;;;;;;;;;4392169;32;20158;-75
2021/01/28 09:09:13;;;;;;;14.07;7.20;;;;;;;;;;4392270;32;20481;-74
2021/01/28 09:11:39;;;;;;;16.73;7.40;;;;;;;;;;4389941;32;20228;-77
2021/01/28 09:14:23;;;;;;;13.37;7.00;;;;;;;;;;4392410;32;20196;-76
2021/01/28 09:16:53;;;;;;;14.47;7.17;;;;;;;;;;4392450;32;20180;-76
2021/01/28 09:19:18;;;;;;;14.27;6.47;;;;;;;;;;4392282;32;20614;-76
2021/01/28 09:21:45;;;;;;;11.70;5.33;;;;;;;;;;4405673;32;20138;-76
2021/01/28 09:24:19;;;;;;;12.80;5.93;;;;;;;;;;4405097;32;20162;-77
2021/01/28 09:26:44;;;;;;;10.73;5.23;;;;;;;;;;4392093;32;20195;-73
2021/01/28 09:29:18;;;;;;;14.43;6.20;;;;;;;;;;4415565;32;20142;-77
2021/01/28 09:31:54;;;;;;;12.67;5.33;;;;;;;;;;4407533;32;20572;-77
2021/01/28 09:34:24;;;;;;;9.83;4.93;;;;;;;;;;4421359;32;20141;-76
2021/01/28 09:36:56;;;;;;;10.73;5.17;;;;;;;;;;4406821;32;20169;-77
2021/01/28 09:39:57;;;;;;;15.33;5.93;;;;;;;;;;4406728;32;20166;-76
2021/01/28 09:42:35;;;;;;;13.93;5.00;;;;;;;;;;4407003;32;20154;-77
2021/01/28 09:45:32;;;;;;;9.47;4.70;;;;;;;;;;4407371;32;20169;-76
2021/01/28 09:47:58;;;;;;;11.37;5.17;;;;;;;;;;4420138;32;20284;-76
2021/01/28 09:50:26;;;;;;;9.87;4.73;;;;;;;;;;4406473;32;20200;-76
2021/01/28 09:52:52;;;;;;;9.23;4.50;;;;;;;;;;4420180;32;20222;-77
2021/01/28 09:55:19;;;;;;;9.37;4.63;;;;;;;;;;4407001;32;20240;-75
2021/01/28 09:57:45;;;;;;;7.50;4.00;;;;;;;;;;4420506;32;20149;-77
2021/01/28 10:00:19;;;;;;;8.30;3.90;;;;;;;;;;4406284;32;20170;-76
2021/01/28 10:02:58;;;;;;;7.70;3.97;;;;;;;;;;4420955;32;20159;-75
2021/01/28 10:05:25;;;;;;;8.50;4.30;;;;;;;;;;4420245;32;20164;-74
2021/01/28 10:07:52;;;;;;;8.20;4.13;;;;;;;;;;4420147;32;20142;-75
2021/01/28 10:10:22;;;;;;;10.53;4.60;;;;;;;;;;4420645;32;20189;-73
2021/01/28 10:12:52;;;;;;;6.70;3.90;;;;;;;;;;4406489;32;20461;-77
2021/01/28 10:15:17;;;;;;;6.13;3.67;;;;;;;;;;4406395;32;20173;-78
2021/01/28 10:17:44;;;;;;;7.43;4.20;;;;;;;;;;4420245;32;20488;-75
2021/01/28 10:20:12;;;;;;;7.93;4.27;;;;;;;;;;4420527;32;20224;-77
2021/01/28 10:22:38;;;;;;;7.80;4.63;;;;;;;;;;4420095;32;20590;-78
2021/01/28 10:25:14;;;;;;;8.23;4.50;;;;;;;;;;4406218;32;20207;-76
2021/01/28 10:27:40;;;;;;;6.53;3.83;;;;;;;;;;4419114;32;20221;-75
2021/01/28 10:30:07;;;;;;;8.40;4.40;;;;;;;;;;4376052;32;20204;-74
2021/01/28 10:32:32;;;;;;;9.27;4.27;;;;;;;;;;4389600;32;20531;-77
2021/01/28 10:34:58;;;;;;;7.17;4.10;;;;;;;;;;4388368;32;20193;-76
2021/01/28 10:37:23;;;;;;;7.43;4.20;;;;;;;;;;4375835;32;20567;-76
2021/01/28 10:39:48;;;;;;;7.67;3.80;;;;;;;;;;4388592;32;20235;-77
2021/01/28 10:42:31;;;;;;;6.17;3.97;;;;;;;;;;4387591;32;20166;-73
2021/01/28 10:45:00;;;;;;;6.93;4.30;;;;;;;;;;4389492;32;20160;-76
2021/01/28 10:47:25;;;;;;;7.03;3.83;;;;;;;;;;4388112;32;20185;-77
2021/01/28 10:49:52;;;;;;;6.60;3.90;;;;;;;;;;4375970;32;20166;-78
2021/01/28 10:52:18;;;;;;;7.10;4.10;;;;;;;;;;4389048;32;20300;-75
2021/01/28 10:54:43;;;;;;;8.60;4.50;;;;;;;;;;4375839;32;20163;-77
2021/01/28 10:57:27;;;;;;;6.77;3.93;;;;;;;;;;4382576;32;20560;-82
2021/01/28 10:59:58;;;;;;;6.27;3.87;;;;;;;;;;4402807;32;20146;-81
2021/01/28 11:02:27;;;;;;;9.30;4.30;;;;;;;;;;4395704;32;20268;-82
2021/01/28 11:04:52;;;;;;;8.77;4.50;;;;;;;;;;4405885;32;20188;-84
2021/01/28 11:07:25;;;;;;;8.30;4.60;;;;;;;;;;4420198;32;20181;-82
2021/01/28 11:10:00;;;;;;;9.03;5.00;;;;;;;;;;4406435;32;20173;-83
2021/01/28 11:12:25;;;;;;;9.57;5.00;;;;;;;;;;4402541;32;20259;-83
2021/01/28 11:14:58;;;;;;;7.50;4.87;;;;;;;;;;4395602;32;20591;-83
2021/01/28 11:17:23;;;;;;;7.97;4.93;;;;;;;;;;4392015;32;20490;-84
2021/01/28 11:19:57;;;;;;;8.50;4.97;;;;;;;;;;4394125;32;20162;-83
2021/01/28 11:22:22;;;;;;;8.23;4.87;;;;;;;;;;4394029;32;20765;-82
2021/01/28 11:24:47;;;;;;;8.70;4.40;;;;;;;;;;4393625;32;20219;-83
2021/01/28 11:27:20;;;;;;;7.00;4.40;;;;;;;;;;4393786;32;20552;-82
2021/01/28 11:29:58;;;;;;;8.83;5.10;;;;;;;;;;4393340;32;20189;-82
2021/01/28 11:32:23;;;;;;;7.00;4.47;;;;;;;;;;4393662;32;20517;-82
2021/01/28 11:37:38;;;;;;;5.43;3.77;;;;;;;;;;4376060;32;20618;-83
2021/01/28 11:40:04;;;;;;;8.87;4.90;;;;;;;;;;4407835;32;20173;-83
2021/01/28 11:42:30;;;;;;;5.67;3.57;;;;;;;;;;4393696;32;20213;-80
2021/01/28 11:45:11;;;;;;;6.00;3.93;;;;;;;;;;4400734;32;20211;-82
2021/01/28 11:47:40;;;;;;;6.40;4.03;;;;;;;;;;4378057;32;20651;-82
2021/01/28 11:50:07;;;;;;;5.43;3.70;;;;;;;;;;4392003;32;20201;-81
2021/01/28 11:52:32;;;;;;;7.37;4.00;;;;;;;;;;4391702;32;20138;-82
2021/01/28 11:55:00;;;;;;;4.73;3.23;;;;;;;;;;4378110;32;20194;-80
2021/01/28 11:57:28;;;;;;;5.80;3.63;;;;;;;;;;4377930;32;20270;-81
2021/01/28 12:00:04;;;;;;;5.50;3.60;;;;;;;;;;4377870;32;20159;-81
2021/01/28 12:02:29;;;;;;;5.10;3.60;;;;;;;;;;4392248;32;20156;-82
2021/01/28 12:05:02;;;;;;;5.07;3.60;;;;;;;;;;4392228;32;20269;-81
2021/01/28 12:07:31;;;;;;;7.60;4.10;;;;;;;;;;4377603;32;20750;-81
2021/01/28 12:09:56;;;;;;;7.03;4.13;;;;;;;;;;4378193;32;20216;-81
2021/01/28 12:12:22;;;;;;;7.40;4.50;;;;;;;;;;4377855;32;20162;-81
2021/01/28 12:14:47;;;;;;;6.03;4.13;;;;;;;;;;4377718;32;20194;-82
2021/01/28 12:17:12;;;;;;;7.70;5.27;;;;;;;;;;4377714;32;20208;-84
2021/01/28 12:19:37;;;;;;;7.27;4.77;;;;;;;;;;4377553;32;20242;-80
2021/01/28 12:22:03;;;;;;;8.13;5.23;;;;;;;;;;4377832;32;20251;-85
2021/01/28 12:24:35;;;;;;;9.27;6.23;;;;;;;;;;4391696;32;20166;-82
2021/01/28 12:27:01;;;;;;;6.97;5.10;;;;;;;;;;4377945;32;20181;-83
2021/01/28 12:29:27;;;;;;;11.00;6.57;;;;;;;;;;4391313;32;20170;-83
2021/01/28 12:31:52;;;;;;;9.07;5.63;;;;;;;;;;4391284;32;20142;-84
2021/01/28 12:34:20;;;;;;;10.20;6.43;;;;;;;;;;4378280;32;20198;-85
2021/01/28 12:36:49;;;;;;;9.70;6.63;;;;;;;;;;4391574;32;20184;-83
2021/01/28 12:39:41;;;;;;;10.97;8.00;;;;;;;;;;4377912;32;20166;-83
2021/01/28 12:42:06;;;;;;;9.27;6.90;;;;;;;;;;4378139;32;20162;-80
2021/01/28 12:44:34;;;;;;;10.70;6.90;;;;;;;;;;4393499;32;20216;-84
2021/01/28 12:47:02;;;;;;;12.77;8.53;;;;;;;;;;4407751;32;20229;-83
2021/01/28 12:49:31;;;;;;;10.57;7.43;;;;;;;;;;4407339;32;20623;-83
2021/01/28 12:51:59;;;;;;;9.93;7.33;;;;;;;;;;4407538;32;20181;-83
2021/01/28 12:54:24;;;;;;;12.40;8.53;;;;;;;;;;4408416;32;20180;-82
2021/01/28 12:56:53;;;;;;;13.07;8.23;;;;;;;;;;4421821;32;20567;-82
2021/01/28 12:59:18;;;;;;;15.07;9.13;;;;;;;;;;4407503;32;20198;-79
2021/01/28 13:01:44;;;;;;;13.77;8.83;;;;;;;;;;4407507;32;20157;-81
2021/01/28 13:04:09;;;;;;;12.83;8.47;;;;;;;;;;4407538;32;20235;-81
2021/01/28 13:06:34;;;;;;;12.40;8.40;;;;;;;;;;4407470;32;20520;-82
2021/01/28 13:09:03;;;;;;;11.57;7.50;;;;;;;;;;4406743;32;20204;-81
2021/01/28 13:11:32;;;;;;;15.87;8.17;;;;;;;;;;4407049;32;20161;-82
2021/01/28 13:13:59;;;;;;;12.80;8.23;;;;;;;;;;4407015;32;20496;-83
2021/01/28 13:16:28;;;;;;;15.70;9.70;;;;;;;;;;4407064;32;20158;-83
2021/01/28 13:18:56;;;;;;;17.73;10.07;;;;;;;;;;4407177;32;20215;-81
2021/01/28 13:21:21;;;;;;;15.77;9.17;;;;;;;;;;4407136;32;20619;-80
2021/01/28 13:23:50;;;;;;;17.67;9.83;;;;;;;;;;4408239;32;20200;-82
2021/01/28 13:26:17;;;;;;;17.70;9.77;;;;;;;;;;4391636;32;20212;-82
2021/01/28 13:28:42;;;;;;;15.93;8.73;;;;;;;;;;4405921;32;20594;-81
2021/01/28 13:31:07;;;;;;;13.23;8.47;;;;;;;;;;4392033;32;20229;-82
2021/01/28 13:33:33;;;;;;;14.47;8.97;;;;;;;;;;4392059;32;20190;-81
2021/01/28 13:35:58;;;;;;;14.73;9.17;;;;;;;;;;4391725;32;20159;-80
2021/01/28 13:38:30;;;;;;;14.27;8.93;;;;;;;;;;4391327;32;20669;-80
2021/01/28 13:40:58;;;;;;;15.43;8.93;;;;;;;;;;4391408;32;20154;-80
2021/01/28 13:43:24;;;;;;;15.57;9.50;;;;;;;;;;4405365;32;20149;-82
2021/01/28 13:45:51;;;;;;;16.73;8.87;;;;;;;;;;4391417;32;20255;-80
2021/01/28 13:48:16;;;;;;;13.40;9.00;;;;;;;;;;4392042;32;20193;-80
2021/01/28 13:50:42;;;;;;;16.63;9.27;;;;;;;;;;4405588;32;20142;-82
2021/01/28 13:53:08;;;;;;;13.87;8.93;;;;;;;;;;4404841;32;20169;-81
2021/01/28 13:55:34;;;;;;;17.57;10.03;;;;;;;;;;4392105;32;20170;-80
2021/01/28 13:58:09;;;;;;;17.57;9.87;;;;;;;;;;4391570;32;20189;-79
2021/01/28 14:00:35;;;;;;;14.30;9.60;;;;;;;;;;4391748;32;20157;-80
2021/01/28 14:03:00;;;;;;;15.93;10.57;;;;;;;;;;4391690;32;20250;-81
2021/01/28 14:05:28;;;;;;;16.77;10.00;;;;;;;;;;4391396;32;20163;-81
2021/01/28 14:08:02;;;;;;;16.20;10.33;;;;;;;;;;4405538;32;20146;-80
2021/01/28 14:10:29;;;;;;;17.27;10.40;;;;;;;;;;4390606;32;20170;-80
2021/01/28 14:12:55;;;;;;;14.93;10.30;;;;;;;;;;4388182;32;20295;-80
2021/01/28 14:15:21;;;;;;;18.07;11.17;;;;;;;;;;4389818;32;20663;-79
2021/01/28 14:18:19;;;;;;;14.00;9.57;;;;;;;;;;4385813;32;20165;-81
2021/01/28 14:20:46;;;;;;;13.97;9.13;;;;;;;;;;4389755;32;20162;-80
2021/01/28 14:23:11;;;;;;;12.33;8.70;;;;;;;;;;4395865;32;20212;-79
2021/01/28 14:25:39;;;;;;;12.47;8.53;;;;;;;;;;4390813;32;20169;-80
2021/01/28 14:28:11;;;;;;;13.10;8.90;;;;;;;;;;4391062;32;20196;-80
2021/01/28 14:30:37;;;;;;;13.30;9.30;;;;;;;;;;4405019;32;20134;-78
2021/01/28 14:33:02;;;;;;;13.20;9.07;;;;;;;;;;4404244;32;20192;-79
2021/01/28 14:35:27;;;;;;;13.97;9.13;;;;;;;;;;4405015;32;20189;-82
2021/01/28 14:37:53;;;;;;;12.33;8.60;;;;;;;;;;4390917;32;20170;-80
2021/01/28 14:40:20;;;;;;;12.73;8.67;;;;;;;;;;4404608;32;20134;-80
2021/01/28 14:42:45;;;;;;;12.03;8.27;;;;;;;;;;4391032;32;20188;-80
2021/01/28 14:45:11;;;;;;;12.17;9.10;;;;;;;;;;4404894;32;20131;-79
2021/01/28 14:47:36;;;;;;;11.90;8.73;;;;;;;;;;4418284;32;20276;-81
2021/01/28 14:50:02;;;;;;;15.20;10.20;;;;;;;;;;4406422;32;20165;-79
2021/01/28 14:52:28;;;;;;;13.30;8.80;;;;;;;;;;4418901;32;20227;-81
2021/01/28 14:54:53;;;;;;;12.73;8.77;;;;;;;;;;4396057;32;20165;-78
2021/01/28 14:57:18;;;;;;;14.00;8.57;;;;;;;;;;4395931;32;20249;-80
2021/01/28 14:59:43;;;;;;;11.97;8.47;;;;;;;;;;4396040;32;20170;-81
2021/01/28 15:02:12;;;;;;;14.83;9.23;;;;;;;;;;4395790;32;20162;-79
2021/01/28 15:04:40;;;;;;;12.13;8.97;;;;;;;;;;4409553;32;20192;-80
2021/01/28 15:07:05;;;;;;;12.50;8.80;;;;;;;;;;4396091;32;20166;-79